sensor_id;sensor_type;location;lat;lon;timestamp;P1;durP1;ratioP1;P2;durP2;ratioP2
48621;SDS011;34421;48.944;9.460;2023-09-08T00:01:49;3.03;;;1.65;;
48621;SDS011;34421;48.944;9.460;2023-09-08T00:04:14;3.97;;;1.95;;
48621;SDS011;34421;48.944;9.460;2023-09-08T00:06:40;3.33;;;1.67;;
48621;SDS011;34421;48.944;9.460;2023-09-08T00:09:06;3.35;;;1.65;;
48621;SDS011;34421;48.944;9.460;2023-09-08T00:11:31;3.92;;;2.08;;
48621;SDS011;34421;48.944;9.460;2023-09-08T00:13:57;3.72;;;1.85;;
48621;SDS011;34421;48.944;9.460;2023-09-08T00:16:22;3.65;;;1.90;;
48621;SDS011;34421;48.944;9.460;2023-09-08T00:18:47;3.38;;;2.08;;
48621;SDS011;34421;48.944;9.460;2023-09-08T00:21:13;3.58;;;2.10;;
48621;SDS011;34421;48.944;9.460;2023-09-08T00:23:38;3.33;;;1.95;;
48621;SDS011;34421;48.944;9.460;2023-09-08T00:26:03;3.20;;;1.58;;
48621;SDS011;34421;48.944;9.460;2023-09-08T00:28:29;3.53;;;1.73;;
48621;SDS011;34421;48.944;9.460;2023-09-08T00:30:54;3.45;;;1.75;;
48621;SDS011;34421;48.944;9.460;2023-09-08T00:33:19;3.67;;;1.90;;
48621;SDS011;34421;48.944;9.460;2023-09-08T00:35:50;3.33;;;1.73;;
48621;SDS011;34421;48.944;9.460;2023-09-08T00:38:16;3.63;;;1.77;;
48621;SDS011;34421;48.944;9.460;2023-09-08T00:40:42;3.75;;;2.17;;
48621;SDS011;34421;48.944;9.460;2023-09-08T00:43:07;3.08;;;1.42;;
48621;SDS011;34421;48.944;9.460;2023-09-08T00:45:32;3.53;;;1.63;;
48621;SDS011;34421;48.944;9.460;2023-09-08T00:48:05;2.97;;;1.60;;
48621;SDS011;34421;48.944;9.460;2023-09-08T00:50:30;3.05;;;1.38;;
48621;SDS011;34421;48.944;9.460;2023-09-08T00:52:56;3.60;;;1.42;;
48621;SDS011;34421;48.944;9.460;2023-09-08T00:55:21;4.45;;;1.60;;
48621;SDS011;34421;48.944;9.460;2023-09-08T00:57:47;2.60;;;1.45;;
48621;SDS011;34421;48.944;9.460;2023-09-08T01:00:12;2.72;;;1.38;;
48621;SDS011;34421;48.944;9.460;2023-09-08T01:02:38;3.55;;;1.38;;
48621;SDS011;34421;48.944;9.460;2023-09-08T01:05:04;2.35;;;1.40;;
48621;SDS011;34421;48.944;9.460;2023-09-08T01:07:29;3.92;;;2.22;;
48621;SDS011;34421;48.944;9.460;2023-09-08T01:09:56;2.50;;;1.45;;
48621;SDS011;34421;48.944;9.460;2023-09-08T01:12:22;2.85;;;1.60;;
48621;SDS011;34421;48.944;9.460;2023-09-08T01:14:48;2.95;;;1.60;;
48621;SDS011;34421;48.944;9.460;2023-09-08T01:17:13;2.45;;;1.20;;
48621;SDS011;34421;48.944;9.460;2023-09-08T01:19:38;3.40;;;1.58;;
48621;SDS011;34421;48.944;9.460;2023-09-08T01:27:37;2.22;;;1.15;;
48621;SDS011;34421;48.944;9.460;2023-09-08T01:30:06;2.72;;;1.63;;
48621;SDS011;34421;48.944;9.460;2023-09-08T01:32:32;2.40;;;1.20;;
48621;SDS011;34421;48.944;9.460;2023-09-08T01:34:59;2.75;;;1.52;;
48621;SDS011;34421;48.944;9.460;2023-09-08T01:37:25;2.30;;;1.10;;
48621;SDS011;34421;48.944;9.460;2023-09-08T01:39:51;2.65;;;1.33;;
48621;SDS011;34421;48.944;9.460;2023-09-08T01:42:16;3.05;;;1.73;;
48621;SDS011;34421;48.944;9.460;2023-09-08T01:44:41;3.42;;;1.92;;
48621;SDS011;34421;48.944;9.460;2023-09-08T01:47:07;3.13;;;1.70;;
48621;SDS011;34421;48.944;9.460;2023-09-08T01:49:32;3.17;;;2.00;;
48621;SDS011;34421;48.944;9.460;2023-09-08T01:51:57;3.30;;;1.77;;
48621;SDS011;34421;48.944;9.460;2023-09-08T01:54:23;3.70;;;1.85;;
48621;SDS011;34421;48.944;9.460;2023-09-08T01:56:48;3.17;;;1.70;;
48621;SDS011;34421;48.944;9.460;2023-09-08T01:59:14;3.78;;;1.80;;
48621;SDS011;34421;48.944;9.460;2023-09-08T02:01:39;3.40;;;1.73;;
48621;SDS011;34421;48.944;9.460;2023-09-08T02:04:05;3.83;;;2.05;;
48621;SDS011;34421;48.944;9.460;2023-09-08T02:06:30;4.40;;;2.47;;
48621;SDS011;34421;48.944;9.460;2023-09-08T02:08:56;3.97;;;1.98;;
48621;SDS011;34421;48.944;9.460;2023-09-08T02:11:21;2.47;;;1.70;;
48621;SDS011;34421;48.944;9.460;2023-09-08T02:13:46;3.47;;;1.55;;
48621;SDS011;34421;48.944;9.460;2023-09-08T02:16:15;2.45;;;1.58;;
48621;SDS011;34421;48.944;9.460;2023-09-08T02:18:44;3.22;;;1.75;;
48621;SDS011;34421;48.944;9.460;2023-09-08T02:21:09;2.65;;;1.60;;
48621;SDS011;34421;48.944;9.460;2023-09-08T02:23:35;2.97;;;1.70;;
48621;SDS011;34421;48.944;9.460;2023-09-08T02:26:01;3.55;;;1.60;;
48621;SDS011;34421;48.944;9.460;2023-09-08T02:28:26;2.95;;;1.52;;
48621;SDS011;34421;48.944;9.460;2023-09-08T02:30:52;3.65;;;1.58;;
48621;SDS011;34421;48.944;9.460;2023-09-08T02:33:17;4.57;;;1.98;;
48621;SDS011;34421;48.944;9.460;2023-09-08T02:35:43;3.13;;;1.73;;
48621;SDS011;34421;48.944;9.460;2023-09-08T02:38:08;3.60;;;1.95;;
48621;SDS011;34421;48.944;9.460;2023-09-08T02:40:34;4.28;;;1.70;;
48621;SDS011;34421;48.944;9.460;2023-09-08T02:43:02;2.70;;;1.48;;
48621;SDS011;34421;48.944;9.460;2023-09-08T02:45:28;2.55;;;1.30;;
48621;SDS011;34421;48.944;9.460;2023-09-08T02:47:54;3.78;;;2.00;;
48621;SDS011;34421;48.944;9.460;2023-09-08T02:50:19;3.55;;;1.73;;
48621;SDS011;34421;48.944;9.460;2023-09-08T02:52:45;3.03;;;1.70;;
48621;SDS011;34421;48.944;9.460;2023-09-08T02:55:11;3.20;;;1.75;;
48621;SDS011;34421;48.944;9.460;2023-09-08T02:57:37;3.33;;;1.73;;
48621;SDS011;34421;48.944;9.460;2023-09-08T03:00:03;2.63;;;1.42;;
48621;SDS011;34421;48.944;9.460;2023-09-08T03:02:30;2.35;;;1.55;;
48621;SDS011;34421;48.944;9.460;2023-09-08T03:04:55;3.78;;;2.10;;
48621;SDS011;34421;48.944;9.460;2023-09-08T03:07:20;4.22;;;2.20;;
48621;SDS011;34421;48.944;9.460;2023-09-08T03:09:46;4.13;;;1.65;;
48621;SDS011;34421;48.944;9.460;2023-09-08T03:12:11;3.25;;;1.95;;
48621;SDS011;34421;48.944;9.460;2023-09-08T03:14:37;4.60;;;2.80;;
48621;SDS011;34421;48.944;9.460;2023-09-08T03:17:02;3.45;;;1.77;;
48621;SDS011;34421;48.944;9.460;2023-09-08T03:19:28;2.65;;;1.60;;
48621;SDS011;34421;48.944;9.460;2023-09-08T03:21:53;3.28;;;1.88;;
48621;SDS011;34421;48.944;9.460;2023-09-08T03:24:18;2.63;;;1.60;;
48621;SDS011;34421;48.944;9.460;2023-09-08T03:26:43;3.83;;;1.70;;
48621;SDS011;34421;48.944;9.460;2023-09-08T03:29:09;3.15;;;1.80;;
48621;SDS011;34421;48.944;9.460;2023-09-08T03:31:34;3.60;;;1.58;;
48621;SDS011;34421;48.944;9.460;2023-09-08T03:33:59;4.38;;;2.28;;
48621;SDS011;34421;48.944;9.460;2023-09-08T03:36:25;4.15;;;2.13;;
48621;SDS011;34421;48.944;9.460;2023-09-08T03:38:50;3.00;;;1.60;;
48621;SDS011;34421;48.944;9.460;2023-09-08T03:41:15;4.18;;;2.20;;
48621;SDS011;34421;48.944;9.460;2023-09-08T03:43:41;2.95;;;1.70;;
48621;SDS011;34421;48.944;9.460;2023-09-08T03:46:06;3.10;;;1.85;;
48621;SDS011;34421;48.944;9.460;2023-09-08T03:48:31;3.90;;;1.52;;
48621;SDS011;34421;48.944;9.460;2023-09-08T03:50:57;2.92;;;1.40;;
48621;SDS011;34421;48.944;9.460;2023-09-08T03:53:23;2.83;;;1.52;;
48621;SDS011;34421;48.944;9.460;2023-09-08T03:55:48;2.15;;;1.30;;
48621;SDS011;34421;48.944;9.460;2023-09-08T03:58:14;5.35;;;2.13;;
48621;SDS011;34421;48.944;9.460;2023-09-08T04:00:40;3.35;;;1.70;;
48621;SDS011;34421;48.944;9.460;2023-09-08T04:03:06;5.28;;;2.33;;
48621;SDS011;34421;48.944;9.460;2023-09-08T04:05:31;2.80;;;1.60;;
48621;SDS011;34421;48.944;9.460;2023-09-08T04:07:57;3.35;;;1.80;;
48621;SDS011;34421;48.944;9.460;2023-09-08T04:10:22;3.42;;;1.80;;
48621;SDS011;34421;48.944;9.460;2023-09-08T04:12:47;3.22;;;1.83;;
48621;SDS011;34421;48.944;9.460;2023-09-08T04:15:12;3.72;;;2.22;;
48621;SDS011;34421;48.944;9.460;2023-09-08T04:17:38;3.60;;;1.80;;
48621;SDS011;34421;48.944;9.460;2023-09-08T04:20:04;2.85;;;1.42;;
48621;SDS011;34421;48.944;9.460;2023-09-08T04:22:30;3.15;;;1.95;;
48621;SDS011;34421;48.944;9.460;2023-09-08T04:24:56;3.50;;;1.88;;
48621;SDS011;34421;48.944;9.460;2023-09-08T04:27:22;3.17;;;1.83;;
48621;SDS011;34421;48.944;9.460;2023-09-08T04:29:48;4.22;;;2.20;;
48621;SDS011;34421;48.944;9.460;2023-09-08T04:32:13;3.65;;;2.08;;
48621;SDS011;34421;48.944;9.460;2023-09-08T04:34:39;4.55;;;2.22;;
48621;SDS011;34421;48.944;9.460;2023-09-08T04:37:05;3.17;;;1.88;;
48621;SDS011;34421;48.944;9.460;2023-09-08T04:39:31;4.25;;;2.00;;
48621;SDS011;34421;48.944;9.460;2023-09-08T04:41:57;3.65;;;2.03;;
48621;SDS011;34421;48.944;9.460;2023-09-08T04:44:23;3.97;;;2.28;;
48621;SDS011;34421;48.944;9.460;2023-09-08T04:46:48;4.22;;;2.30;;
48621;SDS011;34421;48.944;9.460;2023-09-08T04:49:14;4.00;;;2.28;;
48621;SDS011;34421;48.944;9.460;2023-09-08T04:51:39;3.15;;;1.98;;
48621;SDS011;34421;48.944;9.460;2023-09-08T04:54:04;3.33;;;1.98;;
48621;SDS011;34421;48.944;9.460;2023-09-08T04:56:30;4.65;;;2.15;;
48621;SDS011;34421;48.944;9.460;2023-09-08T04:58:55;4.03;;;2.17;;
48621;SDS011;34421;48.944;9.460;2023-09-08T05:01:21;4.07;;;2.42;;
48621;SDS011;34421;48.944;9.460;2023-09-08T05:03:46;3.67;;;2.05;;
48621;SDS011;34421;48.944;9.460;2023-09-08T05:06:11;3.90;;;2.58;;
48621;SDS011;34421;48.944;9.460;2023-09-08T05:08:38;4.13;;;2.50;;
48621;SDS011;34421;48.944;9.460;2023-09-08T05:11:04;3.97;;;2.00;;
48621;SDS011;34421;48.944;9.460;2023-09-08T05:13:29;4.38;;;2.22;;
48621;SDS011;34421;48.944;9.460;2023-09-08T05:15:55;3.55;;;1.90;;
48621;SDS011;34421;48.944;9.460;2023-09-08T05:18:25;5.75;;;2.35;;
48621;SDS011;34421;48.944;9.460;2023-09-08T05:20:51;3.55;;;2.03;;
48621;SDS011;34421;48.944;9.460;2023-09-08T05:23:17;4.18;;;2.38;;
48621;SDS011;34421;48.944;9.460;2023-09-08T05:25:42;3.00;;;1.60;;
48621;SDS011;34421;48.944;9.460;2023-09-08T05:28:08;3.35;;;1.98;;
48621;SDS011;34421;48.944;9.460;2023-09-08T05:30:33;3.72;;;2.08;;
48621;SDS011;34421;48.944;9.460;2023-09-08T05:32:59;3.78;;;2.47;;
48621;SDS011;34421;48.944;9.460;2023-09-08T05:35:24;3.67;;;2.05;;
48621;SDS011;34421;48.944;9.460;2023-09-08T05:37:50;3.47;;;2.00;;
48621;SDS011;34421;48.944;9.460;2023-09-08T05:40:15;3.85;;;2.00;;
48621;SDS011;34421;48.944;9.460;2023-09-08T05:42:40;3.47;;;1.95;;
48621;SDS011;34421;48.944;9.460;2023-09-08T05:45:06;3.33;;;1.90;;
48621;SDS011;34421;48.944;9.460;2023-09-08T05:47:31;2.75;;;1.67;;
48621;SDS011;34421;48.944;9.460;2023-09-08T05:49:57;3.20;;;1.77;;
48621;SDS011;34421;48.944;9.460;2023-09-08T05:52:22;4.72;;;2.25;;
48621;SDS011;34421;48.944;9.460;2023-09-08T05:54:47;4.68;;;2.05;;
48621;SDS011;34421;48.944;9.460;2023-09-08T05:57:13;4.35;;;2.28;;
48621;SDS011;34421;48.944;9.460;2023-09-08T05:59:38;3.90;;;2.22;;
48621;SDS011;34421;48.944;9.460;2023-09-08T06:02:03;4.38;;;2.42;;
48621;SDS011;34421;48.944;9.460;2023-09-08T06:04:29;4.18;;;2.40;;
48621;SDS011;34421;48.944;9.460;2023-09-08T06:06:57;4.70;;;1.98;;
48621;SDS011;34421;48.944;9.460;2023-09-08T06:09:22;3.85;;;1.90;;
48621;SDS011;34421;48.944;9.460;2023-09-08T06:11:47;3.03;;;1.98;;
48621;SDS011;34421;48.944;9.460;2023-09-08T06:14:13;3.33;;;1.40;;
48621;SDS011;34421;48.944;9.460;2023-09-08T06:16:38;3.15;;;1.48;;
48621;SDS011;34421;48.944;9.460;2023-09-08T06:19:04;6.10;;;2.00;;
48621;SDS011;34421;48.944;9.460;2023-09-08T06:21:30;3.30;;;2.17;;
48621;SDS011;34421;48.944;9.460;2023-09-08T06:23:55;3.75;;;1.92;;
48621;SDS011;34421;48.944;9.460;2023-09-08T06:26:21;4.72;;;2.33;;
48621;SDS011;34421;48.944;9.460;2023-09-08T06:28:46;4.68;;;2.35;;
48621;SDS011;34421;48.944;9.460;2023-09-08T06:31:12;3.42;;;1.95;;
48621;SDS011;34421;48.944;9.460;2023-09-08T06:33:39;2.58;;;1.85;;
48621;SDS011;34421;48.944;9.460;2023-09-08T06:36:05;3.65;;;2.20;;
48621;SDS011;34421;48.944;9.460;2023-09-08T06:38:31;3.72;;;1.92;;
48621;SDS011;34421;48.944;9.460;2023-09-08T06:40:56;4.35;;;2.40;;
48621;SDS011;34421;48.944;9.460;2023-09-08T06:43:22;4.38;;;2.40;;
48621;SDS011;34421;48.944;9.460;2023-09-08T06:45:50;3.20;;;2.00;;
48621;SDS011;34421;48.944;9.460;2023-09-08T06:48:15;3.33;;;2.00;;
48621;SDS011;34421;48.944;9.460;2023-09-08T06:50:41;3.25;;;2.08;;
48621;SDS011;34421;48.944;9.460;2023-09-08T06:53:07;3.08;;;1.60;;
48621;SDS011;34421;48.944;9.460;2023-09-08T06:55:32;2.88;;;1.35;;
48621;SDS011;34421;48.944;9.460;2023-09-08T06:57:58;2.75;;;1.40;;
48621;SDS011;34421;48.944;9.460;2023-09-08T07:00:23;2.25;;;1.50;;
48621;SDS011;34421;48.944;9.460;2023-09-08T07:02:48;2.97;;;1.73;;
48621;SDS011;34421;48.944;9.460;2023-09-08T07:05:16;4.35;;;1.50;;
48621;SDS011;34421;48.944;9.460;2023-09-08T07:07:42;3.78;;;2.00;;
48621;SDS011;34421;48.944;9.460;2023-09-08T07:10:10;3.10;;;1.90;;
48621;SDS011;34421;48.944;9.460;2023-09-08T07:12:36;3.42;;;1.80;;
48621;SDS011;34421;48.944;9.460;2023-09-08T07:15:01;3.60;;;1.98;;
48621;SDS011;34421;48.944;9.460;2023-09-08T07:17:27;3.30;;;1.63;;
48621;SDS011;34421;48.944;9.460;2023-09-08T07:19:52;3.05;;;1.42;;
48621;SDS011;34421;48.944;9.460;2023-09-08T07:22:18;3.65;;;1.80;;
48621;SDS011;34421;48.944;9.460;2023-09-08T07:24:44;2.47;;;1.60;;
48621;SDS011;34421;48.944;9.460;2023-09-08T07:27:10;3.13;;;1.77;;
48621;SDS011;34421;48.944;9.460;2023-09-08T07:29:37;2.60;;;1.52;;
48621;SDS011;34421;48.944;9.460;2023-09-08T07:32:03;2.10;;;1.38;;
48621;SDS011;34421;48.944;9.460;2023-09-08T07:34:28;2.22;;;1.50;;
48621;SDS011;34421;48.944;9.460;2023-09-08T07:36:54;3.50;;;1.70;;
48621;SDS011;34421;48.944;9.460;2023-09-08T07:39:19;3.42;;;1.73;;
48621;SDS011;34421;48.944;9.460;2023-09-08T07:41:44;2.20;;;1.17;;
48621;SDS011;34421;48.944;9.460;2023-09-08T07:44:12;2.50;;;1.53;;
48621;SDS011;34421;48.944;9.460;2023-09-08T07:46:38;2.95;;;1.30;;
48621;SDS011;34421;48.944;9.460;2023-09-08T07:49:03;2.90;;;1.60;;
48621;SDS011;34421;48.944;9.460;2023-09-08T07:51:28;3.20;;;1.80;;
48621;SDS011;34421;48.944;9.460;2023-09-08T07:53:54;2.83;;;1.52;;
48621;SDS011;34421;48.944;9.460;2023-09-08T07:56:20;2.15;;;1.38;;
48621;SDS011;34421;48.944;9.460;2023-09-08T07:58:46;2.63;;;1.52;;
48621;SDS011;34421;48.944;9.460;2023-09-08T08:01:12;5.30;;;1.45;;
48621;SDS011;34421;48.944;9.460;2023-09-08T08:03:38;4.72;;;1.65;;
48621;SDS011;34421;48.944;9.460;2023-09-08T08:06:03;3.28;;;1.38;;
48621;SDS011;34421;48.944;9.460;2023-09-08T08:08:28;3.35;;;1.50;;
48621;SDS011;34421;48.944;9.460;2023-09-08T08:10:54;3.13;;;1.75;;
48621;SDS011;34421;48.944;9.460;2023-09-08T08:13:20;2.80;;;1.17;;
48621;SDS011;34421;48.944;9.460;2023-09-08T08:15:45;3.73;;;1.80;;
48621;SDS011;34421;48.944;9.460;2023-09-08T08:18:12;1.80;;;1.00;;
48621;SDS011;34421;48.944;9.460;2023-09-08T08:20:38;2.25;;;1.10;;
48621;SDS011;34421;48.944;9.460;2023-09-08T08:23:04;1.75;;;0.90;;
48621;SDS011;34421;48.944;9.460;2023-09-08T08:25:30;1.95;;;1.10;;
48621;SDS011;34421;48.944;9.460;2023-09-08T08:27:56;2.65;;;1.40;;
48621;SDS011;34421;48.944;9.460;2023-09-08T08:30:23;1.75;;;1.10;;
48621;SDS011;34421;48.944;9.460;2023-09-08T08:32:48;1.52;;;0.90;;
48621;SDS011;34421;48.944;9.460;2023-09-08T08:35:16;2.28;;;1.10;;
48621;SDS011;34421;48.944;9.460;2023-09-08T08:37:41;1.70;;;0.97;;
48621;SDS011;34421;48.944;9.460;2023-09-08T08:40:08;1.70;;;1.08;;
48621;SDS011;34421;48.944;9.460;2023-09-08T08:42:35;1.58;;;1.05;;
48621;SDS011;34421;48.944;9.460;2023-09-08T08:45:01;3.10;;;1.10;;
48621;SDS011;34421;48.944;9.460;2023-09-08T08:47:28;2.20;;;1.35;;
48621;SDS011;34421;48.944;9.460;2023-09-08T08:49:55;1.98;;;0.90;;
48621;SDS011;34421;48.944;9.460;2023-09-08T08:52:23;1.92;;;1.23;;
48621;SDS011;34421;48.944;9.460;2023-09-08T08:54:49;2.08;;;1.00;;
48621;SDS011;34421;48.944;9.460;2023-09-08T08:57:15;2.42;;;1.20;;
48621;SDS011;34421;48.944;9.460;2023-09-08T08:59:40;1.38;;;0.95;;
48621;SDS011;34421;48.944;9.460;2023-09-08T09:02:09;1.73;;;1.10;;
48621;SDS011;34421;48.944;9.460;2023-09-08T09:04:36;1.60;;;1.00;;
48621;SDS011;34421;48.944;9.460;2023-09-08T09:07:02;1.15;;;0.70;;
48621;SDS011;34421;48.944;9.460;2023-09-08T09:09:30;1.92;;;0.98;;
48621;SDS011;34421;48.944;9.460;2023-09-08T09:11:55;1.50;;;1.00;;
48621;SDS011;34421;48.944;9.460;2023-09-08T09:14:21;1.63;;;1.10;;
48621;SDS011;34421;48.944;9.460;2023-09-08T09:16:48;1.38;;;0.90;;
48621;SDS011;34421;48.944;9.460;2023-09-08T09:19:17;1.80;;;1.10;;
48621;SDS011;34421;48.944;9.460;2023-09-08T09:21:52;1.40;;;1.00;;
48621;SDS011;34421;48.944;9.460;2023-09-08T09:26:57;2.03;;;1.02;;
48621;SDS011;34421;48.944;9.460;2023-09-08T09:29:23;1.60;;;1.00;;
48621;SDS011;34421;48.944;9.460;2023-09-08T09:34:18;2.33;;;1.27;;
48621;SDS011;34421;48.944;9.460;2023-09-08T09:36:45;2.25;;;1.05;;
48621;SDS011;34421;48.944;9.460;2023-09-08T09:39:11;1.73;;;1.15;;
48621;SDS011;34421;48.944;9.460;2023-09-08T09:41:37;2.22;;;1.10;;
48621;SDS011;34421;48.944;9.460;2023-09-08T09:44:02;1.63;;;1.20;;
48621;SDS011;34421;48.944;9.460;2023-09-08T09:46:30;1.92;;;1.08;;
48621;SDS011;34421;48.944;9.460;2023-09-08T09:48:56;1.73;;;1.10;;
48621;SDS011;34421;48.944;9.460;2023-09-08T09:51:21;3.55;;;1.33;;
48621;SDS011;34421;48.944;9.460;2023-09-08T09:53:49;2.20;;;0.90;;
48621;SDS011;34421;48.944;9.460;2023-09-08T09:56:16;1.70;;;1.00;;
48621;SDS011;34421;48.944;9.460;2023-09-08T09:58:42;1.58;;;1.10;;
48621;SDS011;34421;48.944;9.460;2023-09-08T10:01:08;2.00;;;1.00;;
48621;SDS011;34421;48.944;9.460;2023-09-08T10:03:36;3.85;;;1.38;;
48621;SDS011;34421;48.944;9.460;2023-09-08T10:06:03;2.22;;;1.10;;
48621;SDS011;34421;48.944;9.460;2023-09-08T10:08:30;1.85;;;1.13;;
48621;SDS011;34421;48.944;9.460;2023-09-08T10:10:59;1.83;;;1.00;;
48621;SDS011;34421;48.944;9.460;2023-09-08T10:13:30;1.95;;;1.10;;
48621;SDS011;34421;48.944;9.460;2023-09-08T10:15:58;3.42;;;1.10;;
48621;SDS011;34421;48.944;9.460;2023-09-08T10:18:26;1.30;;;1.00;;
48621;SDS011;34421;48.944;9.460;2023-09-08T10:20:53;2.17;;;1.33;;
48621;SDS011;34421;48.944;9.460;2023-09-08T10:23:27;2.50;;;1.30;;
48621;SDS011;34421;48.944;9.460;2023-09-08T10:26:02;1.67;;;1.30;;
48621;SDS011;34421;48.944;9.460;2023-09-08T10:28:33;2.17;;;1.02;;
48621;SDS011;34421;48.944;9.460;2023-09-08T10:30:59;2.13;;;1.23;;
48621;SDS011;34421;48.944;9.460;2023-09-08T10:33:25;2.65;;;1.40;;
48621;SDS011;34421;48.944;9.460;2023-09-08T10:35:51;1.98;;;1.38;;
48621;SDS011;34421;48.944;9.460;2023-09-08T10:38:36;2.03;;;1.10;;
48621;SDS011;34421;48.944;9.460;2023-09-08T10:43:43;5.68;;;1.67;;
48621;SDS011;34421;48.944;9.460;2023-09-08T10:46:21;5.22;;;2.00;;
48621;SDS011;34421;48.944;9.460;2023-09-08T10:48:54;6.32;;;2.88;;
48621;SDS011;34421;48.944;9.460;2023-09-08T10:51:20;4.07;;;1.92;;
48621;SDS011;34421;48.944;9.460;2023-09-08T10:53:48;2.47;;;1.25;;
48621;SDS011;34421;48.944;9.460;2023-09-08T10:56:16;2.42;;;1.27;;
48621;SDS011;34421;48.944;9.460;2023-09-08T10:58:43;2.25;;;1.35;;
48621;SDS011;34421;48.944;9.460;2023-09-08T11:01:17;2.45;;;1.30;;
48621;SDS011;34421;48.944;9.460;2023-09-08T11:03:45;2.40;;;1.50;;
48621;SDS011;34421;48.944;9.460;2023-09-08T11:06:14;2.80;;;1.55;;
48621;SDS011;34421;48.944;9.460;2023-09-08T11:08:41;1.83;;;1.20;;
48621;SDS011;34421;48.944;9.460;2023-09-08T11:11:09;1.60;;;1.10;;
48621;SDS011;34421;48.944;9.460;2023-09-08T11:13:35;2.72;;;1.42;;
48621;SDS011;34421;48.944;9.460;2023-09-08T11:16:01;2.27;;;1.30;;
48621;SDS011;34421;48.944;9.460;2023-09-08T11:20:52;2.63;;;1.43;;
48621;SDS011;34421;48.944;9.460;2023-09-08T11:23:18;2.92;;;1.20;;
48621;SDS011;34421;48.944;9.460;2023-09-08T11:25:44;2.65;;;1.42;;
48621;SDS011;34421;48.944;9.460;2023-09-08T11:28:09;2.25;;;1.30;;
48621;SDS011;34421;48.944;9.460;2023-09-08T11:30:34;2.30;;;1.52;;
48621;SDS011;34421;48.944;9.460;2023-09-08T11:33:00;2.72;;;1.67;;
48621;SDS011;34421;48.944;9.460;2023-09-08T11:35:26;3.75;;;1.92;;
48621;SDS011;34421;48.944;9.460;2023-09-08T11:37:52;4.18;;;1.95;;
48621;SDS011;34421;48.944;9.460;2023-09-08T11:40:20;3.85;;;2.28;;
48621;SDS011;34421;48.944;9.460;2023-09-08T11:42:47;3.00;;;2.00;;
48621;SDS011;34421;48.944;9.460;2023-09-08T11:45:13;3.67;;;2.20;;
48621;SDS011;34421;48.944;9.460;2023-09-08T11:47:42;2.60;;;1.85;;
48621;SDS011;34421;48.944;9.460;2023-09-08T11:50:11;5.18;;;2.42;;
48621;SDS011;34421;48.944;9.460;2023-09-08T11:52:43;3.33;;;2.08;;
48621;SDS011;34421;48.944;9.460;2023-09-08T11:55:09;2.60;;;1.75;;
48621;SDS011;34421;48.944;9.460;2023-09-08T11:57:36;3.08;;;1.98;;
48621;SDS011;34421;48.944;9.460;2023-09-08T12:00:02;3.20;;;2.00;;
48621;SDS011;34421;48.944;9.460;2023-09-08T12:02:33;7.00;;;2.05;;
48621;SDS011;34421;48.944;9.460;2023-09-08T12:04:59;2.60;;;1.85;;
48621;SDS011;34421;48.944;9.460;2023-09-08T12:07:25;3.22;;;1.75;;
48621;SDS011;34421;48.944;9.460;2023-09-08T12:09:50;4.00;;;2.40;;
48621;SDS011;34421;48.944;9.460;2023-09-08T12:12:15;3.83;;;2.50;;
48621;SDS011;34421;48.944;9.460;2023-09-08T12:14:41;5.70;;;2.83;;
48621;SDS011;34421;48.944;9.460;2023-09-08T12:17:07;5.05;;;2.50;;
48621;SDS011;34421;48.944;9.460;2023-09-08T12:19:32;5.07;;;3.03;;
48621;SDS011;34421;48.944;9.460;2023-09-08T12:22:01;4.60;;;2.63;;
48621;SDS011;34421;48.944;9.460;2023-09-08T12:27:19;3.17;;;2.00;;
48621;SDS011;34421;48.944;9.460;2023-09-08T12:29:54;4.72;;;2.40;;
48621;SDS011;34421;48.944;9.460;2023-09-08T12:32:21;3.80;;;2.38;;
48621;SDS011;34421;48.944;9.460;2023-09-08T12:34:47;6.13;;;2.90;;
48621;SDS011;34421;48.944;9.460;2023-09-08T12:37:13;4.10;;;2.40;;
48621;SDS011;34421;48.944;9.460;2023-09-08T12:39:38;3.50;;;2.58;;
48621;SDS011;34421;48.944;9.460;2023-09-08T12:42:04;5.57;;;2.58;;
48621;SDS011;34421;48.944;9.460;2023-09-08T12:44:29;3.88;;;2.00;;
48621;SDS011;34421;48.944;9.460;2023-09-08T12:46:55;3.33;;;2.30;;
48621;SDS011;34421;48.944;9.460;2023-09-08T12:49:20;4.25;;;2.60;;
48621;SDS011;34421;48.944;9.460;2023-09-08T12:51:45;4.75;;;2.60;;
48621;SDS011;34421;48.944;9.460;2023-09-08T12:54:11;4.07;;;2.60;;
48621;SDS011;34421;48.944;9.460;2023-09-08T12:56:36;3.58;;;2.33;;
48621;SDS011;34421;48.944;9.460;2023-09-08T12:59:01;6.40;;;2.65;;
48621;SDS011;34421;48.944;9.460;2023-09-08T13:01:28;2.88;;;2.00;;
48621;SDS011;34421;48.944;9.460;2023-09-08T13:03:53;6.40;;;2.97;;
48621;SDS011;34421;48.944;9.460;2023-09-08T13:06:19;5.05;;;2.78;;
48621;SDS011;34421;48.944;9.460;2023-09-08T13:08:44;4.50;;;2.22;;
48621;SDS011;34421;48.944;9.460;2023-09-08T13:11:09;4.55;;;2.20;;
48621;SDS011;34421;48.944;9.460;2023-09-08T13:13:34;4.50;;;2.42;;
48621;SDS011;34421;48.944;9.460;2023-09-08T13:16:00;3.58;;;2.13;;
48621;SDS011;34421;48.944;9.460;2023-09-08T13:18:25;3.42;;;2.30;;
48621;SDS011;34421;48.944;9.460;2023-09-08T13:20:50;3.53;;;2.40;;
48621;SDS011;34421;48.944;9.460;2023-09-08T13:23:16;3.10;;;2.13;;
48621;SDS011;34421;48.944;9.460;2023-09-08T13:25:41;3.67;;;2.42;;
48621;SDS011;34421;48.944;9.460;2023-09-08T13:28:07;4.60;;;2.47;;
48621;SDS011;34421;48.944;9.460;2023-09-08T13:30:32;4.13;;;2.30;;
48621;SDS011;34421;48.944;9.460;2023-09-08T13:32:57;4.93;;;2.70;;
48621;SDS011;34421;48.944;9.460;2023-09-08T13:35:23;3.80;;;2.25;;
48621;SDS011;34421;48.944;9.460;2023-09-08T13:37:48;2.88;;;2.20;;
48621;SDS011;34421;48.944;9.460;2023-09-08T13:40:13;3.63;;;2.22;;
48621;SDS011;34421;48.944;9.460;2023-09-08T13:42:39;3.25;;;2.25;;
48621;SDS011;34421;48.944;9.460;2023-09-08T13:45:04;3.53;;;2.17;;
48621;SDS011;34421;48.944;9.460;2023-09-08T13:47:30;2.95;;;1.80;;
48621;SDS011;34421;48.944;9.460;2023-09-08T13:49:55;3.35;;;2.13;;
48621;SDS011;34421;48.944;9.460;2023-09-08T13:52:20;5.05;;;2.65;;
48621;SDS011;34421;48.944;9.460;2023-09-08T13:54:46;3.95;;;2.47;;
48621;SDS011;34421;48.944;9.460;2023-09-08T13:57:11;3.88;;;1.98;;
48621;SDS011;34421;48.944;9.460;2023-09-08T13:59:36;3.70;;;2.33;;
48621;SDS011;34421;48.944;9.460;2023-09-08T14:02:02;3.88;;;2.40;;
48621;SDS011;34421;48.944;9.460;2023-09-08T14:04:28;3.55;;;2.20;;
48621;SDS011;34421;48.944;9.460;2023-09-08T14:06:54;4.28;;;2.55;;
48621;SDS011;34421;48.944;9.460;2023-09-08T14:09:19;3.55;;;1.60;;
48621;SDS011;34421;48.944;9.460;2023-09-08T14:11:44;4.13;;;1.98;;
48621;SDS011;34421;48.944;9.460;2023-09-08T14:14:10;3.80;;;2.00;;
48621;SDS011;34421;48.944;9.460;2023-09-08T14:16:35;4.45;;;2.42;;
48621;SDS011;34421;48.944;9.460;2023-09-08T14:19:01;5.82;;;3.03;;
48621;SDS011;34421;48.944;9.460;2023-09-08T14:21:26;4.10;;;2.65;;
48621;SDS011;34421;48.944;9.460;2023-09-08T14:23:51;3.83;;;2.58;;
48621;SDS011;34421;48.944;9.460;2023-09-08T14:26:17;4.05;;;2.10;;
48621;SDS011;34421;48.944;9.460;2023-09-08T14:28:42;2.85;;;1.55;;
48621;SDS011;34421;48.944;9.460;2023-09-08T14:31:07;3.40;;;1.98;;
48621;SDS011;34421;48.944;9.460;2023-09-08T14:33:33;3.47;;;2.45;;
48621;SDS011;34421;48.944;9.460;2023-09-08T14:35:58;3.33;;;2.10;;
48621;SDS011;34421;48.944;9.460;2023-09-08T14:38:24;2.75;;;1.70;;
48621;SDS011;34421;48.944;9.460;2023-09-08T14:40:58;4.68;;;2.30;;
48621;SDS011;34421;48.944;9.460;2023-09-08T14:43:25;3.10;;;1.70;;
48621;SDS011;34421;48.944;9.460;2023-09-08T14:45:51;2.70;;;1.95;;
48621;SDS011;34421;48.944;9.460;2023-09-08T14:48:17;3.78;;;2.40;;
48621;SDS011;34421;48.944;9.460;2023-09-08T14:50:42;3.30;;;2.00;;
48621;SDS011;34421;48.944;9.460;2023-09-08T14:53:08;3.80;;;2.33;;
48621;SDS011;34421;48.944;9.460;2023-09-08T14:55:34;4.15;;;2.58;;
48621;SDS011;34421;48.944;9.460;2023-09-08T14:57:59;4.55;;;2.55;;
48621;SDS011;34421;48.944;9.460;2023-09-08T15:00:25;5.03;;;2.90;;